createdAt,value
2023-04-18T00:00:54.284Z,34094.34
2023-04-18T00:03:22.042Z,33983.31
2023-04-18T00:05:51.913Z,33997.44
2023-04-18T00:08:18.803Z,33898.53
2023-04-18T00:10:45.607Z,34019.63
2023-04-18T00:13:12.138Z,33793.56
2023-04-18T00:15:38.823Z,33688.59
2023-04-18T00:18:06.141Z,33749.16
2023-04-18T00:20:33.010Z,33595.75
2023-04-18T00:23:00.637Z,33515.03
2023-04-18T00:25:27.301Z,33311.16
2023-04-18T00:27:53.725Z,33248.59
2023-04-18T00:30:20.233Z,33399.97
2023-04-18T00:32:46.851Z,33212.28
2023-04-18T00:35:13.498Z,33083.13
2023-04-18T00:37:40.027Z,33222.38
2023-04-18T00:40:08.480Z,33075.03
2023-04-18T00:42:35.028Z,33147.69
2023-04-18T00:45:01.848Z,33101.28
2023-04-18T00:47:28.753Z,33095.22
2023-04-18T00:49:55.706Z,32873.22
2023-04-18T00:52:22.389Z,32731.97
2023-04-18T00:54:50.420Z,32729.97
2023-04-18T00:57:17.353Z,32711.78
2023-04-18T00:59:44.073Z,32598.78
2023-04-18T01:02:10.658Z,32574.56
2023-04-18T01:04:37.393Z,32292.09
2023-04-18T01:07:04.559Z,32090.31
2023-04-18T01:09:31.427Z,31936.97
2023-04-18T01:11:58.942Z,31828.03
2023-04-18T01:14:25.441Z,31594.03
2023-04-18T01:16:52.034Z,31555.69
2023-04-18T01:19:20.847Z,31033.22
2023-04-18T01:21:47.371Z,31073.56
2023-04-18T01:24:16.165Z,30871.88
2023-04-18T01:26:45.361Z,30412.03
2023-04-18T01:29:12.091Z,30416.06
2023-04-18T01:31:40.309Z,29952.22
2023-04-18T01:34:07.995Z,29782.84
2023-04-18T01:36:37.935Z,29857.44
2023-04-18T01:39:05.639Z,29700.16
2023-04-18T01:41:33.212Z,29508.63
2023-04-18T01:44:00.233Z,29373.53
2023-04-18T01:46:33.279Z,29292.88
2023-04-18T01:48:59.816Z,29145.69
2023-04-18T01:51:28.220Z,29161.84
2023-04-18T01:53:54.774Z,29069.09
2023-04-18T01:56:21.261Z,28863.47
2023-04-18T01:58:47.725Z,28704.19
2023-04-18T02:01:14.196Z,28696.13
2023-04-18T02:03:41.014Z,28690.09
2023-04-18T02:06:08.018Z,28682.03
2023-04-18T02:08:35.848Z,28619.53
2023-04-18T02:11:02.909Z,28548.97
2023-04-18T02:13:29.331Z,28492.53
2023-04-18T02:15:55.829Z,28460.28
2023-04-18T02:18:24.885Z,28504.63
2023-04-18T02:20:52.087Z,28528.81
2023-04-18T02:23:19.163Z,28512.69
2023-04-18T02:25:45.797Z,28581.22
2023-04-18T02:28:12.330Z,28581.22
2023-04-18T02:30:38.979Z,28561.06
2023-04-18T02:33:05.579Z,28613.50
2023-04-18T02:35:32.290Z,28468.34
2023-04-18T02:37:58.809Z,28486.50
2023-04-18T02:40:25.378Z,28419.97
2023-04-18T02:42:51.878Z,28375.63
2023-04-18T02:45:18.396Z,28238.56
2023-04-18T02:47:54.584Z,28232.50
2023-04-18T02:50:22.606Z,28129.72
2023-04-18T02:52:49.169Z,27964.44
2023-04-18T02:55:15.935Z,27928.16
2023-04-18T02:57:42.379Z,27855.59
2023-04-18T03:00:09.465Z,27883.81
2023-04-18T03:02:36.220Z,27867.69
2023-04-18T03:05:03.403Z,27847.53
2023-04-18T03:07:30.974Z,27863.66
2023-04-18T03:09:57.791Z,27883.81
2023-04-18T03:12:24.741Z,27690.34
2023-04-18T03:14:51.378Z,27662.13
2023-04-18T03:17:18.479Z,27623.84
2023-04-18T03:19:46.626Z,27567.41
2023-04-18T03:22:14.216Z,27400.16
2023-04-18T03:24:40.677Z,27406.19
2023-04-18T03:27:07.208Z,27351.78
2023-04-18T03:29:33.754Z,27210.72
2023-04-18T03:32:00.297Z,27101.91
2023-04-18T03:34:27.073Z,27097.88
2023-04-18T03:36:54.173Z,26924.59
2023-04-18T03:39:21.036Z,26799.66
2023-04-18T03:41:47.574Z,26739.22
2023-04-18T03:44:14.473Z,26775.47
2023-04-18T03:46:41.622Z,27069.66
2023-04-18T03:49:08.525Z,27075.72
2023-04-18T03:51:43.511Z,26918.53
2023-04-18T03:54:10.078Z,26850.03
2023-04-18T03:56:36.878Z,26819.81
2023-04-18T03:59:03.493Z,26715.03
2023-04-18T04:01:31.226Z,26646.53
2023-04-18T04:03:57.747Z,26610.25
2023-04-18T04:06:24.716Z,26606.25
2023-04-18T04:08:51.270Z,26612.28
2023-04-18T04:11:17.815Z,26664.66
2023-04-18T04:13:44.430Z,26586.09
2023-04-18T04:16:11.083Z,26557.88
2023-04-18T04:18:37.850Z,26606.25
2023-04-18T04:21:05.694Z,26569.97
2023-04-18T04:23:33.214Z,26725.13
2023-04-18T04:26:04.142Z,26876.22
2023-04-18T04:28:31.581Z,27190.56
2023-04-18T04:30:58.065Z,27736.69
2023-04-18T04:33:25.745Z,27851.56
2023-04-18T04:35:56.739Z,28133.75
2023-04-18T04:38:23.230Z,28135.75
2023-04-18T04:40:50.098Z,28288.94
2023-04-18T04:43:20.364Z,28369.56
2023-04-18T04:45:51.724Z,28385.72
2023-04-18T04:48:24.997Z,28428.03
2023-04-18T04:50:55.761Z,28476.41
2023-04-18T04:53:24.265Z,28528.81
2023-04-18T04:55:51.073Z,28522.78
2023-04-18T04:58:20.396Z,28514.72
2023-04-18T05:00:47.139Z,28569.13
2023-04-18T05:03:13.859Z,28555.03
2023-04-18T05:05:40.443Z,28597.34
2023-04-18T05:08:06.927Z,28581.22
2023-04-18T05:10:37.168Z,28641.72
2023-04-18T05:13:05.409Z,28615.50
2023-04-18T05:15:32.407Z,28673.97
2023-04-18T05:17:58.944Z,28694.13
2023-04-18T05:20:25.629Z,28698.16
2023-04-18T05:23:07.168Z,28694.13
2023-04-18T05:25:34.945Z,28778.78
2023-04-18T05:28:01.558Z,28738.47
2023-04-18T05:30:28.000Z,28748.56
2023-04-18T05:32:54.928Z,28802.97
2023-04-18T05:35:21.467Z,28784.84
2023-04-18T05:37:50.005Z,28726.38
2023-04-18T05:40:16.752Z,28621.56
2023-04-18T05:42:43.163Z,28645.75
2023-04-18T05:45:11.334Z,28577.19
2023-04-18T05:47:37.805Z,28540.91
2023-04-18T05:50:05.237Z,28559.06
2023-04-18T05:52:32.581Z,28589.28
2023-04-18T05:55:00.247Z,28444.16
2023-04-18T05:57:26.684Z,28514.72
2023-04-18T05:59:54.248Z,28480.44
2023-04-18T06:02:21.216Z,28480.44
2023-04-18T06:04:49.007Z,28422.00
2023-04-18T06:07:21.446Z,28415.94
2023-04-18T06:09:49.975Z,28331.28
2023-04-18T06:12:16.747Z,28258.72
2023-04-18T06:14:43.197Z,28170.03
2023-04-18T06:17:12.523Z,28210.34
2023-04-18T06:19:40.000Z,28069.25
2023-04-18T06:22:14.225Z,28188.16
2023-04-18T06:24:44.931Z,28242.59
2023-04-18T06:27:24.202Z,28351.44
2023-04-18T06:29:56.895Z,28496.56
2023-04-18T06:32:23.450Z,28444.16
2023-04-18T06:34:51.184Z,28387.72
2023-04-18T06:37:27.246Z,28460.28
2023-04-18T06:39:55.940Z,28468.34
2023-04-18T06:42:22.860Z,28432.06
2023-04-18T06:44:49.736Z,28349.41
2023-04-18T06:47:16.582Z,28371.59
2023-04-18T06:49:43.042Z,28331.28
2023-04-18T06:52:10.929Z,28284.91
2023-04-18T06:54:37.792Z,28329.25
2023-04-18T06:57:04.930Z,28303.06
2023-04-18T06:59:31.833Z,28359.50
2023-04-18T07:01:58.320Z,28381.66
2023-04-18T07:04:24.925Z,28434.09
2023-04-18T07:06:52.022Z,28319.19
2023-04-18T07:09:18.548Z,28264.75
2023-04-18T07:11:45.464Z,28339.34
2023-04-18T07:14:14.484Z,28319.19
2023-04-18T07:16:41.606Z,28129.72
2023-04-18T07:19:08.380Z,28105.53
2023-04-18T07:21:34.966Z,28024.91
2023-04-18T07:24:01.392Z,27835.44
2023-04-18T07:26:30.134Z,27821.34
2023-04-18T07:29:04.930Z,27887.84
2023-04-18T07:31:31.421Z,27901.97
2023-04-18T07:33:58.365Z,27944.28
2023-04-18T07:36:24.958Z,28032.97
2023-04-18T07:38:51.836Z,28190.19
2023-04-18T07:41:18.272Z,28137.78
2023-04-18T07:43:44.894Z,28145.84
2023-04-18T07:46:11.463Z,28214.38
2023-04-18T07:48:37.964Z,28274.84
2023-04-18T07:51:04.586Z,28230.50
2023-04-18T07:53:31.090Z,28297.00
2023-04-18T07:55:57.572Z,28383.69
2023-04-18T07:58:24.009Z,28250.66
2023-04-18T08:00:50.686Z,28290.97
2023-04-18T08:03:17.269Z,28254.69
2023-04-18T08:05:43.789Z,28232.50
2023-04-18T08:08:11.979Z,28133.75
2023-04-18T08:10:38.834Z,28186.16
2023-04-18T08:13:06.812Z,28125.69
2023-04-18T08:15:33.380Z,28186.16
2023-04-18T08:18:01.110Z,28115.59
2023-04-18T08:20:27.947Z,28166.00
2023-04-18T08:23:06.215Z,28186.16
2023-04-18T08:25:36.757Z,28153.91
2023-04-18T08:28:05.133Z,28184.13
2023-04-18T08:30:31.754Z,28290.97
2023-04-18T08:33:00.100Z,28250.66
2023-04-18T08:35:26.808Z,28149.88
2023-04-18T08:38:02.794Z,28274.84
2023-04-18T08:40:37.978Z,28155.91
2023-04-18T08:43:09.229Z,27916.06
2023-04-18T08:45:36.908Z,27754.84
2023-04-18T08:48:03.921Z,27692.38
2023-04-18T08:50:43.339Z,27613.75
2023-04-18T08:53:11.015Z,27656.09
2023-04-18T08:55:38.002Z,27599.66
2023-04-18T08:58:06.852Z,27557.34
2023-04-18T09:00:50.653Z,27684.31
2023-04-18T09:03:17.200Z,27629.88
2023-04-18T09:05:43.735Z,27327.59
2023-04-18T09:08:25.947Z,27212.75
2023-04-18T09:10:52.764Z,26880.25
2023-04-18T09:13:46.263Z,26711.00
2023-04-18T09:16:20.736Z,26533.69
2023-04-18T09:19:13.734Z,26344.31
2023-04-18T09:21:42.578Z,26032.06
2023-04-18T09:24:28.424Z,25816.53
2023-04-18T09:26:57.109Z,25703.72
2023-04-18T09:29:43.400Z,25885.00
2023-04-18T09:32:10.130Z,25917.25
2023-04-18T09:34:42.505Z,25929.31
2023-04-18T09:37:13.830Z,26050.19
2023-04-18T09:39:42.541Z,26013.94
2023-04-18T09:42:11.126Z,26038.09
2023-04-18T09:44:39.553Z,26078.41
2023-04-18T09:47:07.797Z,26144.88
2023-04-18T09:49:34.662Z,26231.50
2023-04-18T09:52:06.353Z,26219.41
2023-04-18T09:54:33.467Z,26332.22
2023-04-18T09:57:02.833Z,26545.78
2023-04-18T10:00:14.351Z,26424.91
2023-04-18T10:02:49.530Z,26598.19
2023-04-18T10:05:19.497Z,26811.75
2023-04-18T10:07:49.818Z,26823.84
2023-04-18T10:10:17.668Z,27267.16
2023-04-18T10:12:54.920Z,27823.38
2023-04-18T10:15:23.673Z,27654.06
2023-04-18T10:18:09.170Z,27793.13
2023-04-18T10:20:36.266Z,27879.78
2023-04-18T10:23:37.987Z,27887.84
2023-04-18T10:26:09.010Z,28113.59
2023-04-18T10:28:58.444Z,28147.84
2023-04-18T10:31:29.225Z,28232.50
2023-04-18T10:36:28.522Z,28246.63
2023-04-18T10:39:00.823Z,28343.38
2023-04-18T10:41:38.112Z,29028.78
2023-04-18T10:44:08.685Z,29335.22
2023-04-18T10:46:40.542Z,30274.88
2023-04-18T10:49:16.585Z,30740.75
2023-04-18T10:51:45.309Z,31836.09
2023-04-18T10:54:17.817Z,32455.53
2023-04-18T10:57:01.919Z,33603.81
2023-04-18T10:59:33.734Z,35099.75
2023-04-18T11:02:20.029Z,36127.63
2023-04-18T11:04:56.914Z,35352.16
2023-04-18T11:07:37.694Z,34841.31
2023-04-18T11:10:08.129Z,35130.03
2023-04-18T11:12:41.526Z,33926.78
2023-04-18T11:15:21.924Z,33470.63
2023-04-18T11:18:04.891Z,32756.19
2023-04-18T11:20:39.628Z,34108.47
2023-04-18T11:23:16.246Z,33864.22
2023-04-18T11:25:44.922Z,33761.25
2023-04-18T11:28:14.092Z,33999.44
2023-04-18T11:30:41.454Z,33664.38
2023-04-18T11:33:08.529Z,34421.38
2023-04-18T11:35:45.343Z,35323.88
2023-04-18T11:38:16.209Z,36533.63
2023-04-18T11:40:50.379Z,36242.75
2023-04-18T11:43:25.137Z,36398.28
2023-04-18T11:45:52.721Z,35622.75
2023-04-18T11:48:19.302Z,34794.88
2023-04-18T11:50:45.831Z,33785.50
2023-04-18T11:53:12.285Z,33486.75
2023-04-18T11:55:38.909Z,32695.66
2023-04-18T11:58:06.776Z,33066.97
2023-04-18T12:00:55.214Z,33284.94
2023-04-18T12:03:24.453Z,33274.84
2023-04-18T12:05:59.851Z,32994.31
2023-04-18T12:08:27.465Z,33093.22
2023-04-18T12:11:00.245Z,33008.44
2023-04-18T12:13:32.997Z,34195.25
2023-04-18T12:16:02.696Z,34895.81
2023-04-18T12:18:29.999Z,35562.16
2023-04-18T12:20:58.549Z,35430.91
2023-04-18T12:23:42.825Z,37937.72
2023-04-18T12:26:14.560Z,39344.31
2023-04-18T12:28:45.078Z,38988.56
2023-04-18T12:31:11.616Z,37335.59
2023-04-18T12:33:38.102Z,37341.66
2023-04-18T12:36:11.296Z,36889.13
2023-04-18T12:38:45.791Z,37016.41
2023-04-18T12:41:13.435Z,36765.91
2023-04-18T12:43:39.868Z,36988.13
2023-04-18T12:46:06.361Z,37561.88
2023-04-18T12:48:33.881Z,38501.50
2023-04-18T12:51:00.414Z,37428.53
2023-04-18T12:53:26.902Z,37143.69
2023-04-18T12:55:53.418Z,37529.56
2023-04-18T12:58:28.112Z,37169.94
2023-04-18T13:00:55.865Z,39724.34
2023-04-18T13:03:26.439Z,42074.09
2023-04-18T13:05:53.521Z,44147.97
2023-04-18T13:08:20.097Z,49113.50
2023-04-18T13:10:47.949Z,48059.94
2023-04-18T13:13:15.534Z,46178.38
2023-04-18T13:15:44.773Z,52269.81
2023-04-18T13:18:11.426Z,60129.97
2023-04-18T13:20:38.179Z,63809.63
2023-04-18T13:23:05.740Z,64643.59
2023-04-18T13:25:32.282Z,66625.50
2023-04-18T13:28:00.848Z,67753.25
2023-04-18T13:30:28.989Z,71179.09
2023-04-18T13:32:56.926Z,77668.19
2023-04-18T13:35:23.414Z,81956.50
2023-04-18T13:37:49.883Z,68113.63
2023-04-18T13:40:16.850Z,71566.28
2023-04-18T13:42:47.418Z,54042.66
2023-04-18T13:45:13.870Z,47932.31
2023-04-18T13:47:41.610Z,45364.47
2023-04-18T13:50:09.049Z,45890.84
2023-04-18T13:52:36.282Z,46376.81
2023-04-18T13:55:04.038Z,51410.03
2023-04-18T13:57:32.186Z,52148.13
2023-04-18T13:59:59.290Z,60205.16
2023-04-18T14:02:31.827Z,68748.94
2023-04-18T14:04:58.639Z,79570.81
2023-04-18T14:07:25.449Z,83002.72
2023-04-18T14:09:53.728Z,81956.50
2023-04-18T14:12:20.516Z,82479.56
2023-04-18T14:14:47.143Z,79080.78
2023-04-18T14:17:13.571Z,78819.44
2023-04-18T14:19:41.465Z,76990.66
2023-04-18T14:22:07.963Z,73690.28
2023-04-18T14:24:37.642Z,80649.09
2023-04-18T14:27:10.684Z,81433.47
2023-04-18T14:29:37.117Z,79080.78
2023-04-18T14:32:03.828Z,78296.84
2023-04-18T14:34:38.197Z,76990.66
2023-04-18T14:37:06.244Z,80126.25
2023-04-18T14:39:38.077Z,75423.75
2023-04-18T14:42:17.129Z,72660.75
2023-04-18T14:44:43.623Z,81433.47
2023-04-18T14:47:10.278Z,74640.53
2023-04-18T14:49:36.653Z,81433.47
2023-04-18T14:52:03.161Z,78296.84
2023-04-18T14:54:31.553Z,76207.13
2023-04-18T14:56:59.200Z,72552.72
2023-04-18T14:59:28.009Z,69533.03
2023-04-18T15:01:54.608Z,70423.22
2023-04-18T15:04:22.557Z,69771.34
2023-04-18T15:06:49.192Z,70453.78
2023-04-18T15:09:15.935Z,75423.75
2023-04-18T15:11:55.264Z,69818.19
2023-04-18T15:14:25.755Z,59634.19
2023-04-18T15:16:52.273Z,69561.53
2023-04-18T15:19:18.926Z,62565.06
2023-04-18T15:21:46.393Z,56912.56
2023-04-18T15:24:13.179Z,52628.78
2023-04-18T15:26:39.683Z,51316.78
2023-04-18T15:29:06.429Z,56880.09
2023-04-18T15:31:40.234Z,68243.94
2023-04-18T15:34:08.883Z,70250.03
2023-04-18T15:36:36.035Z,76929.44
2023-04-18T15:39:05.874Z,75945.97
2023-04-18T15:41:37.626Z,75945.97
2023-04-18T15:44:05.553Z,76468.28
2023-04-18T15:46:34.818Z,75684.88
2023-04-18T15:49:03.492Z,76468.28
2023-04-18T15:51:30.869Z,76468.28
2023-04-18T15:54:06.838Z,75162.66
2023-04-18T15:56:33.875Z,76990.66
2023-04-18T15:59:04.209Z,68616.56
2023-04-18T16:01:33.070Z,68616.56
2023-04-18T16:04:01.680Z,67181.19
2023-04-18T16:06:31.178Z,61949.03
2023-04-18T16:08:58.829Z,56336.00
2023-04-18T16:11:28.919Z,56319.75
2023-04-18T16:13:56.532Z,61205.03
2023-04-18T16:16:23.241Z,64330.31
2023-04-18T16:18:49.794Z,60782.31
2023-04-18T16:21:16.368Z,61495.72
2023-04-18T16:23:43.359Z,65896.94
2023-04-18T16:26:11.041Z,64704.63
2023-04-18T16:28:37.752Z,61827.06
2023-04-18T16:31:06.062Z,64261.16
2023-04-18T16:33:32.740Z,64419.81
2023-04-18T16:36:02.556Z,65953.91
2023-04-18T16:38:40.176Z,69107.34
2023-04-18T16:41:08.776Z,70527.13
2023-04-18T16:43:38.113Z,73506.78
2023-04-18T16:46:06.029Z,75162.66
2023-04-18T16:48:33.982Z,74089.94
2023-04-18T16:51:00.581Z,73449.69
2023-04-18T16:53:29.204Z,67582.22
2023-04-18T16:55:56.974Z,71492.91
2023-04-18T16:58:23.749Z,69907.81
2023-04-18T17:00:55.399Z,70052.44
2023-04-18T17:03:22.323Z,70351.91
2023-04-18T17:05:48.729Z,70537.31
2023-04-18T17:08:16.581Z,70105.41
2023-04-18T17:10:45.422Z,68201.16
2023-04-18T17:13:21.059Z,67439.72
2023-04-18T17:15:47.602Z,70376.34
2023-04-18T17:18:14.033Z,71124.09
2023-04-18T17:20:40.833Z,71272.84
2023-04-18T17:23:07.184Z,70588.22
2023-04-18T17:25:33.952Z,69496.38
2023-04-18T17:28:02.232Z,66218.47
2023-04-18T17:30:29.439Z,64950.78
2023-04-18T17:33:01.973Z,62378.00
2023-04-18T17:35:31.682Z,60316.91
2023-04-18T17:38:00.122Z,54671.69
2023-04-18T17:40:26.818Z,51274.19
2023-04-18T17:42:53.278Z,47300.31
2023-04-18T17:45:22.710Z,45741.03
2023-04-18T17:47:50.904Z,44846.25
2023-04-18T17:50:17.681Z,43126.06
2023-04-18T17:52:46.338Z,42377.50
2023-04-18T17:55:13.064Z,41430.91
2023-04-18T17:57:39.583Z,41026.44
2023-04-18T18:00:10.739Z,40777.72
2023-04-18T18:02:38.317Z,40472.41
2023-04-18T18:05:05.533Z,40288.41
2023-04-18T18:07:34.827Z,39902.25
2023-04-18T18:10:03.313Z,39716.25
2023-04-18T18:12:31.097Z,38974.44
2023-04-18T18:14:58.043Z,38493.41
2023-04-18T18:17:24.653Z,38408.53
2023-04-18T18:19:51.561Z,38285.28
2023-04-18T18:22:18.353Z,38182.22
2023-04-18T18:24:46.839Z,37569.97
2023-04-18T18:27:13.331Z,37438.66
2023-04-18T18:29:40.935Z,37056.81
2023-04-18T18:32:09.585Z,36727.53
2023-04-18T18:34:38.155Z,36592.19
2023-04-18T18:37:05.800Z,36309.41
2023-04-18T18:39:32.483Z,36079.16
2023-04-18T18:41:59.121Z,35723.72
2023-04-18T18:44:33.848Z,35235.03
2023-04-18T18:47:00.523Z,34879.66
2023-04-18T18:49:27.380Z,34714.09
2023-04-18T18:51:53.887Z,34687.84
2023-04-18T18:54:20.462Z,34257.84
2023-04-18T18:56:48.317Z,33999.44
2023-04-18T18:59:16.116Z,33856.13
2023-04-18T19:01:42.902Z,33660.34
2023-04-18T19:04:09.722Z,33464.56
2023-04-18T19:06:40.725Z,33345.47
2023-04-18T19:09:08.162Z,33188.06
2023-04-18T19:11:35.742Z,32955.97
2023-04-18T19:14:03.011Z,32764.25
2023-04-18T19:16:37.814Z,32550.38
2023-04-18T19:19:08.460Z,32580.63
2023-04-18T19:21:39.832Z,32481.75
2023-04-18T19:24:06.699Z,32243.66
2023-04-18T19:26:33.282Z,32130.66
2023-04-18T19:28:59.868Z,31755.41
2023-04-18T19:31:26.492Z,31739.28
2023-04-18T19:33:53.162Z,31981.38
2023-04-18T19:36:19.712Z,31868.38
2023-04-18T19:38:47.258Z,31864.34
2023-04-18T19:41:14.089Z,31856.28
2023-04-18T19:43:42.966Z,31739.28
2023-04-18T19:46:09.905Z,31709.00
2023-04-18T19:48:37.587Z,31533.50
2023-04-18T19:51:04.844Z,31436.66
2023-04-18T19:53:34.497Z,31347.91
2023-04-18T19:56:01.149Z,31418.50
2023-04-18T19:58:44.823Z,31551.66
2023-04-18T20:01:21.307Z,31458.84
2023-04-18T20:03:48.345Z,31404.38
2023-04-18T20:06:16.826Z,31025.16
2023-04-18T20:08:44.559Z,31061.47
2023-04-18T20:11:12.423Z,30980.78
2023-04-18T20:13:39.167Z,30738.75
2023-04-18T20:16:07.511Z,30791.19
2023-04-18T20:18:35.854Z,30662.09
2023-04-18T20:21:03.380Z,30529.00
2023-04-18T20:23:30.329Z,30293.03
2023-04-18T20:25:57.983Z,29976.44
2023-04-18T20:28:24.882Z,29907.88
2023-04-18T20:30:51.478Z,29577.16
2023-04-18T20:33:18.346Z,29415.88
2023-04-18T20:35:46.691Z,29311.03
2023-04-18T20:38:14.901Z,29127.56
2023-04-18T20:40:44.993Z,28948.13
2023-04-18T20:43:12.736Z,28798.94
2023-04-18T20:45:42.866Z,28595.34
2023-04-18T20:48:10.116Z,28557.03
2023-04-18T20:50:36.568Z,28282.91
2023-04-18T20:53:04.023Z,28335.31
2023-04-18T20:55:31.032Z,28153.91
2023-04-18T20:57:58.685Z,28000.72
2023-04-18T21:00:25.413Z,27791.13
2023-04-18T21:02:52.072Z,27722.59
2023-04-18T21:05:18.745Z,27609.72
2023-04-18T21:07:45.862Z,27470.69
2023-04-18T21:10:12.660Z,27287.28
2023-04-18T21:12:39.137Z,27053.53
2023-04-18T21:15:06.368Z,27017.28
2023-04-18T21:17:33.002Z,27081.75
2023-04-18T21:19:59.549Z,26962.88
2023-04-18T21:22:27.176Z,26823.84
2023-04-18T21:24:53.731Z,26731.16
2023-04-18T21:27:20.432Z,26775.47
2023-04-18T21:29:47.002Z,26852.06
2023-04-18T21:32:13.560Z,26819.81
2023-04-18T21:34:39.994Z,26827.88
2023-04-18T21:37:06.499Z,27029.38
2023-04-18T21:39:33.125Z,26981.00
2023-04-18T21:41:59.680Z,26987.06
2023-04-18T21:44:26.253Z,26876.22
2023-04-18T21:46:52.801Z,26821.81
2023-04-18T21:49:19.647Z,26854.06
2023-04-18T21:51:49.026Z,26731.16
2023-04-18T21:54:16.212Z,26700.94
2023-04-18T21:56:45.582Z,26731.16
2023-04-18T21:59:12.131Z,26704.97
2023-04-18T22:01:39.147Z,26658.63
2023-04-18T22:04:06.215Z,26672.72
2023-04-18T22:06:33.464Z,26646.53
2023-04-18T22:09:01.108Z,26539.75
2023-04-18T22:11:28.652Z,26527.66
2023-04-18T22:13:58.166Z,26388.66
2023-04-18T22:16:24.902Z,26116.66
2023-04-18T22:18:51.719Z,26118.69
2023-04-18T22:21:18.269Z,26082.44
2023-04-18T22:23:44.909Z,26134.81
2023-04-18T22:26:11.539Z,26154.94
2023-04-18T22:28:38.158Z,26140.84
2023-04-18T22:31:05.178Z,26134.81
2023-04-18T22:33:31.722Z,26066.31
2023-04-18T22:35:58.498Z,26070.34
2023-04-18T22:38:25.545Z,26032.06
2023-04-18T22:40:52.206Z,26066.31
2023-04-18T22:43:23.017Z,26054.22
2023-04-18T22:45:51.531Z,26068.31
2023-04-18T22:48:18.588Z,26050.19
2023-04-18T22:50:46.317Z,26030.03
2023-04-18T22:53:15.023Z,25909.19
2023-04-18T22:55:45.233Z,25949.47
2023-04-18T22:58:14.311Z,25905.16
2023-04-18T23:00:40.970Z,25647.31
2023-04-18T23:03:07.795Z,25415.69
2023-04-18T23:05:34.679Z,25371.38
2023-04-18T23:08:01.489Z,25176.00
2023-04-18T23:10:28.271Z,25006.81
2023-04-18T23:12:54.853Z,24797.38
2023-04-18T23:15:22.886Z,24805.44
2023-04-18T23:17:52.006Z,24539.59
2023-04-18T23:20:19.139Z,24334.22
2023-04-18T23:22:46.715Z,24229.50
2023-04-18T23:25:13.442Z,24179.16
2023-04-18T23:27:40.269Z,23975.81
2023-04-18T23:30:07.603Z,23557.03
2023-04-18T23:32:34.346Z,23482.53
2023-04-18T23:35:04.322Z,23643.59
2023-04-18T23:37:31.595Z,23148.38
2023-04-18T23:39:59.733Z,23090.00
2023-04-18T23:42:27.588Z,22596.84
2023-04-18T23:44:54.643Z,22347.28
2023-04-18T23:47:21.963Z,22007.16
2023-04-18T23:49:48.804Z,21832.09
2023-04-18T23:52:15.583Z,22156.09
2023-04-18T23:54:42.315Z,21520.19
2023-04-18T23:57:09.098Z,21037.28
2023-04-18T23:59:35.663Z,20538.38
